Time;durP1;ratioP1;P1;durP2;ratioP2;P2;SDS_P1;SDS_P2;PMS_P1;PMS_P2;Temp;Humidity;BMP_temperature;BMP_pressure;BME280_temperature;BME280_humidity;BME280_pressure;Samples;Min_cycle;Max_cycle;Signal;HPM_P1;HPM_P2
2023/08/23 00:01:03;;;;;;;;;;;;;;;29.29;34.13;100624.59;5076806;28;19916;-62
2023/08/23 00:03:28;;;;;;;;;;;;;;;29.34;34.23;100620.88;5094931;28;19920;-62
2023/08/23 00:05:54;;;;;;;;;;;;;;;29.36;33.91;100613.06;5095838;28;20023;-64
2023/08/23 00:08:19;;;;;;;;;;;;;;;29.40;33.75;100625.16;5083439;28;19916;-64
2023/08/23 00:10:44;;;;;;;;;;;;;;;29.36;34.42;100624.13;5074992;28;19912;-64
2023/08/23 00:13:10;;;;;;;;;;;;;;;29.36;34.32;100623.31;5075759;28;19912;-64
2023/08/23 00:15:40;;;;;;;;;;;;;;;29.39;34.22;100625.47;5075879;28;20281;-64
2023/08/23 00:18:06;;;;;;;;;;;;;;;29.41;34.21;100631.50;5075915;28;19964;-64
2023/08/23 00:20:31;;;;;;;;;;;;;;;29.41;34.23;100623.19;5075889;28;19999;-64
2023/08/23 00:22:56;;;;;;;;;;;;;;;29.47;33.72;100619.97;5075626;28;19969;-64
2023/08/23 00:25:21;;;;;;;;;;;;;;;29.47;33.72;100619.97;5075482;28;19913;-64
2023/08/23 00:27:47;;;;;;;;;;;;;;;29.50;33.65;100613.00;5075406;28;19962;-63
2023/08/23 00:30:12;;;;;;;;;;;;;;;29.49;33.85;100614.13;5075886;28;19948;-63
2023/08/23 00:32:38;;;;;;;;;;;;;;;29.50;33.68;100616.56;5075734;28;20288;-64
2023/08/23 00:35:03;;;;;;;;;;;;;;;29.50;34.16;100604.69;5075208;28;19927;-64
2023/08/23 00:37:28;;;;;;;;;;;;;;;29.49;33.87;100611.34;5075782;28;19917;-63
2023/08/23 00:39:54;;;;;;;;;;;;;;;29.47;34.02;100617.19;5075476;28;20432;-64
2023/08/23 00:42:19;;;;;;;;;;;;;;;29.48;34.08;100607.78;5075469;28;19969;-64
2023/08/23 00:44:44;;;;;;;;;;;;;;;29.46;33.83;100612.81;5075440;28;20365;-64
2023/08/23 00:47:09;;;;;;;;;;;;;;;29.50;34.22;100605.50;5078014;28;19920;-64
2023/08/23 00:49:35;;;;;;;;;;;;;;;29.46;33.89;100606.47;5095594;28;19912;-64
2023/08/23 00:52:02;;;;;;;;;;;;;;;29.47;34.17;100599.78;5095856;28;19920;-64
2023/08/23 00:54:27;;;;;;;;;;;;;;;29.39;34.43;100606.09;5095048;28;19916;-64
2023/08/23 00:56:53;;;;;;;;;;;;;;;29.42;34.28;100599.91;5095622;28;20414;-64
2023/08/23 00:59:19;;;;;;;;;;;;;;;29.47;33.94;100605.31;5095297;28;20268;-64
2023/08/23 01:01:44;;;;;;;;;;;;;;;29.49;34.04;100598.34;5095049;28;19916;-63
2023/08/23 01:04:10;;;;;;;;;;;;;;;29.54;33.96;100608.44;5093556;28;19969;-64
2023/08/23 01:06:51;;;;;;;;;;;;;;;29.52;34.05;100614.28;5083501;28;19912;-63
2023/08/23 01:09:37;;;;;;;;;;;;;;;29.48;34.12;100606.97;5074443;28;20393;-63
2023/08/23 01:12:11;;;;;;;;;;;;;;;29.39;34.04;100601.38;5073544;28;19916;-63
2023/08/23 01:14:47;;;;;;;;;;;;;;;29.39;34.06;100604.13;5073835;28;19966;-64
2023/08/23 01:17:14;;;;;;;;;;;;;;;29.39;33.94;100603.34;5074484;28;19927;-64
2023/08/23 01:19:46;;;;;;;;;;;;;;;29.47;34.23;100597.00;5074429;28;19970;-65
2023/08/23 01:22:21;;;;;;;;;;;;;;;29.46;33.73;100598.16;5074591;28;19917;-64
2023/08/23 01:24:48;;;;;;;;;;;;;;;29.49;33.67;100605.81;5074158;28;19930;-64
2023/08/23 01:27:13;;;;;;;;;;;;;;;29.43;34.11;100607.91;5074617;28;19947;-64
2023/08/23 01:29:38;;;;;;;;;;;;;;;29.47;33.76;100608.09;5074812;28;19951;-64
2023/08/23 01:32:14;;;;;;;;;;;;;;;29.47;33.66;100606.13;5074810;28;20340;-64
2023/08/23 01:34:43;;;;;;;;;;;;;;;29.44;33.76;100605.94;5074646;28;19912;-65
2023/08/23 01:37:09;;;;;;;;;;;;;;;29.45;33.64;100608.41;5074439;28;19920;-65
2023/08/23 01:39:34;;;;;;;;;;;;;;;29.44;33.62;100611.47;5074664;28;20384;-65
2023/08/23 01:42:00;;;;;;;;;;;;;;;29.38;33.69;100619.09;5074599;28;20436;-65
2023/08/23 01:44:26;;;;;;;;;;;;;;;29.44;33.73;100617.84;5085757;28;19919;-64
2023/08/23 01:46:51;;;;;;;;;;;;;;;29.41;33.69;100614.91;5094829;28;19912;-64
2023/08/23 01:49:16;;;;;;;;;;;;;;;29.44;33.71;100608.72;5094046;28;20384;-64
2023/08/23 01:51:41;;;;;;;;;;;;;;;29.43;33.60;100607.91;5094132;28;19916;-66
2023/08/23 01:54:17;;;;;;;;;;;;;;;29.42;34.04;100597.16;5093986;28;20268;-65
2023/08/23 01:56:42;;;;;;;;;;;;;;;29.40;33.91;100594.72;5093927;28;19920;-65
2023/08/23 01:59:07;;;;;;;;;;;;;;;29.39;33.71;100601.38;5094313;28;19913;-65
2023/08/23 02:01:33;;;;;;;;;;;;;;;29.38;33.62;100607.22;5093408;28;20360;-64
2023/08/23 02:03:58;;;;;;;;;;;;;;;29.38;34.07;100601.69;5073969;28;19920;-65
2023/08/23 02:06:23;;;;;;;;;;;;;;;29.38;34.18;100590.63;5073925;28;19916;-65
2023/08/23 02:08:49;;;;;;;;;;;;;;;29.36;34.05;100596.47;5074165;28;19912;-65
2023/08/23 02:11:14;;;;;;;;;;;;;;;29.31;34.12;100591.09;5073689;28;19955;-65
2023/08/23 02:13:40;;;;;;;;;;;;;;;29.32;33.75;100598.25;5073824;28;19951;-64
2023/08/23 02:16:06;;;;;;;;;;;;;;;29.28;33.91;100594.47;5073495;28;19917;-64
2023/08/23 02:18:31;;;;;;;;;;;;;;;29.29;34.15;100596.09;5073655;28;19924;-64
2023/08/23 02:20:57;;;;;;;;;;;;;;;29.26;33.82;100589.25;5073981;28;19960;-64
2023/08/23 02:23:22;;;;;;;;;;;;;;;29.26;34.01;100591.22;5074245;28;19919;-65
2023/08/23 02:25:48;;;;;;;;;;;;;;;29.24;34.01;100590.72;5073364;28;19912;-65
2023/08/23 02:28:13;;;;;;;;;;;;;;;29.22;33.97;100591.03;5073202;28;19917;-64
2023/08/23 02:30:38;;;;;;;;;;;;;;;29.21;33.99;100592.16;5073475;28;19912;-64
2023/08/23 02:33:03;;;;;;;;;;;;;;;29.20;34.50;100598.00;5072018;28;20369;-64
2023/08/23 02:35:29;;;;;;;;;;;;;;;29.24;34.31;100588.75;5073361;28;19914;-64
2023/08/23 02:37:54;;;;;;;;;;;;;;;29.23;34.07;100589.88;5073657;28;20281;-64
2023/08/23 02:40:20;;;;;;;;;;;;;;;29.21;33.99;100585.81;5073510;28;20273;-64
2023/08/23 02:42:45;;;;;;;;;;;;;;;29.23;33.98;100587.13;5073419;28;20049;-64
2023/08/23 02:45:13;;;;;;;;;;;;;;;29.21;34.51;100588.56;5072318;28;19935;-64
2023/08/23 02:47:38;;;;;;;;;;;;;;;29.20;34.48;100586.94;5073323;28;20525;-65
2023/08/23 02:50:04;;;;;;;;;;;;;;;29.19;34.56;100580.59;5072702;28;20308;-65
2023/08/23 02:52:29;;;;;;;;;;;;;;;29.17;34.54;100579.28;5072105;28;19912;-64
2023/08/23 02:54:55;;;;;;;;;;;;;;;29.17;34.11;100585.63;5072310;28;20361;-64
2023/08/23 02:57:20;;;;;;;;;;;;;;;29.14;34.18;100583.47;5073126;28;19916;-64
2023/08/23 02:59:45;;;;;;;;;;;;;;;29.15;34.51;100590.66;5072935;28;20265;-64
2023/08/23 03:02:10;;;;;;;;;;;;;;;29.14;34.44;100584.31;5072487;28;19913;-64
2023/08/23 03:04:36;;;;;;;;;;;;;;;29.14;34.07;100586.25;5072711;28;19920;-64
2023/08/23 03:07:01;;;;;;;;;;;;;;;29.14;34.13;100589.84;5072960;28;20000;-64
2023/08/23 03:09:27;;;;;;;;;;;;;;;29.13;34.03;100579.06;5073140;28;19919;-64
2023/08/23 03:11:52;;;;;;;;;;;;;;;29.16;34.36;100581.25;5072570;28;19916;-64
2023/08/23 03:14:17;;;;;;;;;;;;;;;29.17;34.14;100577.31;5072684;28;19919;-64
2023/08/23 03:16:42;;;;;;;;;;;;;;;29.12;34.41;100581.03;5054906;28;19921;-65
2023/08/23 03:19:08;;;;;;;;;;;;;;;29.16;34.13;100581.25;5072889;28;20013;-65
2023/08/23 03:21:33;;;;;;;;;;;;;;;29.19;34.41;100582.56;5072746;28;19913;-65
2023/08/23 03:23:58;;;;;;;;;;;;;;;29.20;34.05;100578.63;5072644;28;19951;-65
2023/08/23 03:26:24;;;;;;;;;;;;;;;29.12;34.63;100577.41;5072890;28;20288;-65
2023/08/23 03:28:49;;;;;;;;;;;;;;;29.05;34.26;100575.13;5072128;28;19919;-65
2023/08/23 03:31:14;;;;;;;;;;;;;;;28.87;34.69;100571.41;5072583;28;20305;-65
2023/08/23 03:33:39;;;;;;;;;;;;;;;28.91;34.74;100577.94;5054590;28;20324;-65
2023/08/23 03:36:05;;;;;;;;;;;;;;;28.91;34.57;100571.59;5072408;28;19924;-64
2023/08/23 03:38:30;;;;;;;;;;;;;;;28.90;34.93;100568.03;5072170;28;20420;-64
2023/08/23 03:40:56;;;;;;;;;;;;;;;28.97;34.79;100567.56;5054791;28;19919;-64
2023/08/23 03:43:21;;;;;;;;;;;;;;;28.97;34.79;100570.34;5072836;28;19974;-64
2023/08/23 03:45:47;;;;;;;;;;;;;;;29.01;34.78;100571.34;5072635;28;19951;-65
2023/08/23 03:48:13;;;;;;;;;;;;;;;29.07;34.54;100574.81;5072837;28;19962;-65
2023/08/23 03:50:38;;;;;;;;;;;;;;;29.04;34.80;100575.44;5072753;28;19913;-64
2023/08/23 03:53:03;;;;;;;;;;;;;;;28.99;34.77;100572.78;5072534;28;19920;-64
2023/08/23 03:55:28;;;;;;;;;;;;;;;29.00;34.42;100579.97;5071958;28;19919;-65
2023/08/23 03:57:54;;;;;;;;;;;;;;;29.06;34.44;100575.94;5072340;28;19921;-65
2023/08/23 04:00:19;;;;;;;;;;;;;;;29.05;34.35;100574.28;5072355;28;19913;-65
2023/08/23 04:02:44;;;;;;;;;;;;;;;29.03;34.70;100579.31;5074496;28;20420;-65
2023/08/23 04:05:11;;;;;;;;;;;;;;;29.00;34.49;100574.44;5092490;28;20362;-65
2023/08/23 04:07:37;;;;;;;;;;;;;;;28.96;34.54;100577.00;5092749;28;19912;-65
2023/08/23 04:10:02;;;;;;;;;;;;;;;29.01;34.70;100571.34;5092645;28;19912;-65
2023/08/23 04:12:27;;;;;;;;;;;;;;;29.02;34.22;100580.47;5092387;28;19919;-65
2023/08/23 04:14:53;;;;;;;;;;;;;;;29.04;34.62;100569.91;5092539;28;20340;-65
2023/08/23 04:17:18;;;;;;;;;;;;;;;29.03;34.29;100571.03;5092467;28;19923;-64
2023/08/23 04:19:43;;;;;;;;;;;;;;;29.05;34.66;100565.97;5092538;28;20007;-65
2023/08/23 04:22:08;;;;;;;;;;;;;;;29.03;34.61;100563.56;5073764;28;19912;-65
2023/08/23 04:24:34;;;;;;;;;;;;;;;29.00;34.38;100561.41;5072194;28;19923;-65
2023/08/23 04:26:59;;;;;;;;;;;;;;;29.04;34.50;100564.38;5072108;28;19999;-65
2023/08/23 04:29:24;;;;;;;;;;;;;;;29.04;34.43;100564.38;5072283;28;19912;-65
2023/08/23 04:31:49;;;;;;;;;;;;;;;29.02;34.45;100561.09;5072447;28;20488;-65
2023/08/23 04:34:15;;;;;;;;;;;;;;;29.04;34.59;100565.19;5092091;28;19944;-65
2023/08/23 04:36:40;;;;;;;;;;;;;;;29.09;34.19;100564.25;5092466;28;19969;-65
2023/08/23 04:39:05;;;;;;;;;;;;;;;29.10;34.38;100555.63;5073446;28;19916;-64
2023/08/23 04:41:31;;;;;;;;;;;;;;;29.13;34.46;100563.31;5075575;28;19935;-65
2023/08/23 04:43:56;;;;;;;;;;;;;;;29.08;34.20;100565.38;5075508;28;19916;-65
2023/08/23 04:46:21;;;;;;;;;;;;;;;29.09;34.11;100564.25;5075626;28;19918;-64
2023/08/23 04:48:46;;;;;;;;;;;;;;;29.08;34.50;100566.16;5075559;28;19912;-64
2023/08/23 04:51:12;;;;;;;;;;;;;;;29.00;34.35;100568.91;5075426;28;19913;-64
2023/08/23 04:53:38;;;;;;;;;;;;;;;28.98;34.72;100571.16;5075277;28;19952;-64
2023/08/23 04:56:03;;;;;;;;;;;;;;;28.90;34.66;100565.25;5075168;28;19912;-64
2023/08/23 04:58:32;;;;;;;;;;;;;;;28.84;34.27;100566.50;5074650;28;19924;-64
2023/08/23 05:01:05;;;;;;;;;;;;;;;28.73;34.71;100570.66;5075026;28;19917;-65
2023/08/23 05:03:31;;;;;;;;;;;;;;;28.68;34.34;100565.28;5094820;28;19938;-65
2023/08/23 05:05:58;;;;;;;;;;;;;;;28.66;34.23;100570.25;5095702;28;19957;-65
2023/08/23 05:08:24;;;;;;;;;;;;;;;28.71;34.42;100570.97;5095742;28;19915;-65
2023/08/23 05:10:52;;;;;;;;;;;;;;;28.83;33.96;100569.59;5095497;28;20392;-65
2023/08/23 05:13:18;;;;;;;;;;;;;;;28.89;33.95;100565.56;5090911;28;19923;-65
2023/08/23 05:15:43;;;;;;;;;;;;;;;28.97;33.77;100570.34;5075110;28;20350;-65
2023/08/23 05:18:08;;;;;;;;;;;;;;;28.99;34.10;100583.84;5074843;28;20383;-65
2023/08/23 05:20:35;;;;;;;;;;;;;;;29.04;33.73;100576.25;5075007;28;19955;-64
2023/08/23 05:23:00;;;;;;;;;;;;;;;29.05;33.97;100582.56;5075169;28;19955;-64
2023/08/23 05:25:26;;;;;;;;;;;;;;;28.94;34.24;100571.78;5074752;28;19913;-64
2023/08/23 05:27:51;;;;;;;;;;;;;;;29.01;34.17;100576.88;5075008;28;19958;-64
2023/08/23 05:30:16;;;;;;;;;;;;;;;29.03;33.93;100576.56;5093078;28;19916;-64
2023/08/23 05:32:41;;;;;;;;;;;;;;;29.01;33.97;100579.66;5095325;28;19994;-64
2023/08/23 05:35:07;;;;;;;;;;;;;;;28.97;34.21;100575.88;5095011;28;19912;-64
2023/08/23 05:37:32;;;;;;;;;;;;;;;28.97;33.72;100575.88;5094863;28;20384;-64
2023/08/23 05:39:57;;;;;;;;;;;;;;;29.08;34.00;100581.97;5094920;28;19919;-64
2023/08/23 05:42:23;;;;;;;;;;;;;;;29.00;33.96;100574.44;5094709;28;19916;-65
2023/08/23 05:44:49;;;;;;;;;;;;;;;29.07;33.85;100574.81;5094590;28;20306;-65
2023/08/23 05:47:14;;;;;;;;;;;;;;;29.01;33.95;100584.34;5088254;28;19916;-65
2023/08/23 05:49:39;;;;;;;;;;;;;;;28.87;33.97;100576.13;5074343;28;19912;-65
2023/08/23 05:52:04;;;;;;;;;;;;;;;28.98;34.01;100585.00;5073644;28;19912;-65
2023/08/23 05:54:31;;;;;;;;;;;;;;;29.04;33.59;100578.19;5073474;28;19932;-64
2023/08/23 05:56:59;;;;;;;;;;;;;;;29.06;33.91;100579.50;5073709;28;20256;-64
2023/08/23 05:59:25;;;;;;;;;;;;;;;29.18;33.49;100580.91;5074309;28;19955;-64
2023/08/23 06:01:50;;;;;;;;;;;;;;;29.17;33.47;100582.84;5077729;28;19951;-64
2023/08/23 06:04:15;;;;;;;;;;;;;;;29.24;33.47;100586.00;5074032;28;19935;-64
2023/08/23 06:06:40;;;;;;;;;;;;;;;29.34;33.34;100580.19;5074107;28;19919;-64
2023/08/23 06:09:06;;;;;;;;;;;;;;;29.42;32.87;100581.38;5073974;28;20277;-65
2023/08/23 06:11:31;;;;;;;;;;;;;;;29.37;33.05;100578.75;5073883;28;20261;-65
2023/08/23 06:13:56;;;;;;;;;;;;;;;29.38;32.67;100574.81;5073673;28;19912;-65
2023/08/23 06:16:21;;;;;;;;;;;;;;;29.40;32.79;100572.59;5074078;28;19916;-65
2023/08/23 06:18:47;;;;;;;;;;;;;;;29.43;33.19;100579.41;5073769;28;19912;-65
2023/08/23 06:21:12;;;;;;;;;;;;;;;29.44;32.88;100573.56;5073149;28;19917;-64
2023/08/23 06:23:43;;;;;;;;;;;;;;;29.53;32.51;100581.91;5073343;28;19912;-64
2023/08/23 06:26:09;;;;;;;;;;;;;;;29.54;32.39;100578.81;5073609;28;19942;-64
2023/08/23 06:28:34;;;;;;;;;;;;;;;29.84;32.30;100576.34;5073451;28;19916;-64
2023/08/23 06:30:59;;;;;;;;;;;;;;;29.94;31.58;100575.25;5073373;28;19974;-64
2023/08/23 06:33:25;;;;;;;;;;;;;;;30.03;31.65;100575.25;5073678;28;19912;-64
2023/08/23 06:35:50;;;;;;;;;;;;;;;30.15;31.23;100564.38;5073538;28;19919;-64
2023/08/23 06:38:15;;;;;;;;;;;;;;;30.24;31.40;100559.66;5073355;28;19916;-64
2023/08/23 06:40:44;;;;;;;;;;;;;;;30.26;30.96;100560.16;5073496;28;19916;-64
2023/08/23 06:43:16;;;;;;;;;;;;;;;30.42;31.65;100551.38;5073057;28;19951;-64
2023/08/23 06:45:42;;;;;;;;;;;;;;;30.55;31.11;100555.13;5073132;28;19966;-64
2023/08/23 06:48:07;;;;;;;;;;;;;;;30.61;30.90;100560.19;5073213;28;19917;-64
2023/08/23 06:50:33;;;;;;;;;;;;;;;30.55;30.65;100561.47;5073249;28;19923;-65
2023/08/23 06:52:58;;;;;;;;;;;;;;;30.37;30.77;100565.38;5072904;28;20304;-65
2023/08/23 06:55:25;;;;;;;;;;;;;;;30.29;30.74;100569.75;5072289;28;19958;-63
2023/08/23 06:57:50;;;;;;;;;;;;;;;30.02;31.29;100568.91;5072860;28;20280;-64
2023/08/23 07:00:16;;;;;;;;;;;;;;;29.84;31.50;100561.69;5072789;28;20000;-63
2023/08/23 07:02:41;;;;;;;;;;;;;;;29.79;31.57;100565.44;5072576;28;19965;-63
2023/08/23 07:05:06;;;;;;;;;;;;;;;29.68;31.24;100569.59;5092650;28;19977;-64
2023/08/23 07:07:32;;;;;;;;;;;;;;;29.68;32.01;100566.81;5092627;28;19912;-63
2023/08/23 07:09:57;;;;;;;;;;;;;;;29.69;31.68;100574.81;5082068;28;19912;-63
2023/08/23 07:12:22;;;;;;;;;;;;;;;29.73;31.71;100567.50;5072639;28;19963;-63
2023/08/23 07:14:49;;;;;;;;;;;;;;;29.72;32.03;100568.63;5072726;28;19912;-63
2023/08/23 07:17:15;;;;;;;;;;;;;;;29.72;32.09;100571.41;5072420;28;20003;-63
2023/08/23 07:19:40;;;;;;;;;;;;;;;29.76;31.95;100577.16;5072756;28;19999;-63
2023/08/23 07:22:05;;;;;;;;;;;;;;;29.78;31.69;100571.28;5084842;28;20283;-63
2023/08/23 07:24:31;;;;;;;;;;;;;;;29.88;31.56;100568.22;5092519;28;20284;-63
2023/08/23 07:26:56;;;;;;;;;;;;;;;30.02;31.35;100559.78;5078289;28;19920;-63
2023/08/23 07:29:21;;;;;;;;;;;;;;;30.22;31.70;100564.72;5072668;28;19919;-64
2023/08/23 07:31:47;;;;;;;;;;;;;;;30.48;31.23;100558.41;5072218;28;20398;-64
2023/08/23 07:34:12;;;;;;;;;;;;;;;30.57;30.94;100556.44;5072474;28;19919;-64
2023/08/23 07:36:37;;;;;;;;;;;;;;;30.58;30.67;100549.75;5072392;28;20011;-64
2023/08/23 07:39:03;;;;;;;;;;;;;;;30.51;31.26;100548.63;5054590;28;19912;-63
2023/08/23 07:41:28;;;;;;;;;;;;;;;30.45;31.13;100551.53;5072667;28;19917;-63
2023/08/23 07:43:53;;;;;;;;;;;;;;;30.44;30.92;100549.09;5072746;28;20394;-63
2023/08/23 07:46:19;;;;;;;;;;;;;;;30.42;30.67;100551.38;5072476;28;19912;-63
2023/08/23 07:48:44;;;;;;;;;;;;;;;30.43;30.69;100547.47;5072586;28;19912;-63
2023/08/23 07:51:13;;;;;;;;;;;;;;;30.42;30.88;100552.22;5072613;28;19913;-63
2023/08/23 07:53:41;;;;;;;;;;;;;;;30.30;30.94;100549.25;5071771;28;20421;-63
2023/08/23 07:56:07;;;;;;;;;;;;;;;30.22;31.21;100553.63;5072372;28;20036;-64
2023/08/23 07:58:32;;;;;;;;;;;;;;;30.23;31.19;100563.56;5072379;28;20431;-64
2023/08/23 08:00:59;;;;;;;;;;;;;;;30.22;31.31;100563.88;5072467;28;19958;-64
2023/08/23 08:03:28;;;;;;;;;;;;;;;30.23;30.81;100568.28;5090927;28;19925;-64
2023/08/23 08:05:53;;;;;;;;;;;;;;;30.30;31.45;100571.41;5084548;28;19919;-63
2023/08/23 08:08:18;;;;;;;;;;;;;;;30.34;31.10;100577.16;5072402;28;19916;-63
2023/08/23 08:10:43;;;;;;;;;;;;;;;30.39;30.56;100574.22;5072388;28;19927;-64
2023/08/23 08:13:09;;;;;;;;;;;;;;;30.54;30.76;100579.28;5072161;28;19912;-64
2023/08/23 08:15:34;;;;;;;;;;;;;;;30.39;30.65;100579.75;5076135;28;19916;-64
2023/08/23 08:17:59;;;;;;;;;;;;;;;30.24;30.66;100573.50;5085539;28;19928;-63
2023/08/23 08:20:25;;;;;;;;;;;;;;;30.03;30.98;100570.56;5096106;28;19916;-63
2023/08/23 08:22:50;;;;;;;;;;;;;;;29.97;31.23;100571.03;5096101;28;19919;-64
2023/08/23 08:25:16;;;;;;;;;;;;;;;30.01;30.81;100561.72;5096108;28;19912;-63
2023/08/23 08:27:41;;;;;;;;;;;;;;;30.04;30.88;100565.81;5075612;28;20407;-63
2023/08/23 08:30:07;;;;;;;;;;;;;;;30.11;31.45;100560.63;5075912;28;19912;-63
2023/08/23 08:32:32;;;;;;;;;;;;;;;30.28;31.43;100563.41;5075730;28;19917;-63
2023/08/23 08:34:58;;;;;;;;;;;;;;;30.44;30.98;100566.56;5076038;28;19912;-64
2023/08/23 08:37:24;;;;;;;;;;;;;;;30.68;30.60;100571.63;5075444;28;20377;-63
2023/08/23 08:39:49;;;;;;;;;;;;;;;30.70;30.75;100568.50;5075858;28;20029;-63
2023/08/23 08:42:15;;;;;;;;;;;;;;;30.88;30.53;100577.63;5075734;28;20401;-64
2023/08/23 08:44:40;;;;;;;;;;;;;;;30.97;30.30;100580.41;5075750;28;19912;-64
2023/08/23 08:47:06;;;;;;;;;;;;;;;30.82;30.08;100579.75;5075573;28;19944;-64
2023/08/23 08:49:31;;;;;;;;;;;;;;;30.82;30.37;100574.19;5075412;28;19938;-64
2023/08/23 08:51:57;;;;;;;;;;;;;;;30.68;29.85;100582.69;5057614;28;20327;-64
2023/08/23 08:54:23;;;;;;;;;;;;;;;30.59;30.23;100576.34;5074820;28;19917;-63
2023/08/23 08:56:50;;;;;;;;;;;;;;;30.59;30.65;100576.34;5075519;28;19942;-64
2023/08/23 08:59:15;;;;;;;;;;;;;;;30.65;30.31;100577.81;5075163;28;19917;-64
2023/08/23 09:01:42;;;;;;;;;;;;;;;30.55;30.56;100572.56;5076084;28;19927;-64
2023/08/23 09:04:07;;;;;;;;;;;;;;;30.65;30.71;100577.00;5089211;28;19934;-64
2023/08/23 09:06:34;;;;;;;;;;;;;;;30.65;30.86;100571.44;5095934;28;19919;-64
2023/08/23 09:09:00;;;;;;;;;;;;;;;30.62;30.08;100572.91;5085279;28;20395;-64
2023/08/23 09:11:26;;;;;;;;;;;;;;;30.59;30.63;100564.41;5074879;28;19913;-64
2023/08/23 09:13:52;;;;;;;;;;;;;;;30.79;31.19;100565.72;5075198;28;19924;-64
2023/08/23 09:16:17;;;;;;;;;;;;;;;30.98;30.90;100563.44;5075086;28;19966;-64
2023/08/23 09:18:43;;;;;;;;;;;;;;;31.10;30.16;100559.19;5075403;28;19913;-64
2023/08/23 09:21:10;;;;;;;;;;;;;;;31.23;29.94;100564.50;5075112;28;19919;-64
2023/08/23 09:23:36;;;;;;;;;;;;;;;31.17;30.01;100565.03;5075011;28;19912;-64
2023/08/23 09:26:01;;;;;;;;;;;;;;;31.15;29.87;100564.53;5069402;28;19919;-64
2023/08/23 09:28:28;;;;;;;;;;;;;;;31.19;30.16;100565.53;5074895;28;19919;-64
2023/08/23 09:30:54;;;;;;;;;;;;;;;31.22;30.47;100567.63;5074796;28;19912;-64
2023/08/23 09:33:20;;;;;;;;;;;;;;;31.17;29.83;100563.06;5075064;28;20379;-64
2023/08/23 09:35:48;;;;;;;;;;;;;;;31.21;29.59;100564.03;5074615;28;19925;-64
2023/08/23 09:38:17;;;;;;;;;;;;;;;31.08;29.68;100576.16;5074681;28;20384;-64
2023/08/23 09:40:43;;;;;;;;;;;;;;;30.96;29.72;100574.06;5074702;28;19916;-63
2023/08/23 09:43:10;;;;;;;;;;;;;;;30.68;30.07;100570.78;5074978;28;19912;-64
2023/08/23 09:45:36;;;;;;;;;;;;;;;30.71;30.27;100569.31;5074541;28;19917;-64
2023/08/23 09:48:02;;;;;;;;;;;;;;;30.74;30.13;100568.66;5074517;28;19962;-64
2023/08/23 09:50:28;;;;;;;;;;;;;;;30.66;30.17;100561.97;5074632;28;19956;-64
2023/08/23 09:53:06;;;;;;;;;;;;;;;30.79;30.08;100563.75;5074391;28;19956;-65
2023/08/23 09:55:32;;;;;;;;;;;;;;;30.78;30.33;100559.38;5073971;28;20048;-64
2023/08/23 09:57:59;;;;;;;;;;;;;;;30.83;29.93;100558.38;5078227;28;19974;-64
2023/08/23 10:00:25;;;;;;;;;;;;;;;30.75;30.34;100548.13;5082076;28;19920;-64
2023/08/23 10:02:51;;;;;;;;;;;;;;;30.78;30.50;100545.50;5077307;28;20011;-64
2023/08/23 10:05:18;;;;;;;;;;;;;;;30.77;29.98;100541.09;5094133;28;20014;-64
2023/08/23 10:07:43;;;;;;;;;;;;;;;30.84;30.48;100540.59;5094481;28;19912;-64
2023/08/23 10:10:10;;;;;;;;;;;;;;;31.04;29.75;100544.66;5087336;28;20327;-64
2023/08/23 10:12:36;;;;;;;;;;;;;;;31.18;30.38;100545.25;5073775;28;19952;-64
2023/08/23 10:15:02;;;;;;;;;;;;;;;31.32;29.94;100544.25;5073760;28;20364;-64
2023/08/23 10:17:29;;;;;;;;;;;;;;;31.56;29.65;100543.69;5073887;28;19965;-64
2023/08/23 10:19:55;;;;;;;;;;;;;;;31.67;29.47;100544.13;5073551;28;19924;-64
2023/08/23 10:22:20;;;;;;;;;;;;;;;31.84;29.68;100542.06;5073694;28;19912;-64
2023/08/23 10:24:47;;;;;;;;;;;;;;;31.98;28.70;100539.06;5073519;28;19958;-63
2023/08/23 10:27:13;;;;;;;;;;;;;;;32.14;28.97;100539.28;5074223;28;19919;-64
2023/08/23 10:29:38;;;;;;;;;;;;;;;32.25;28.14;100539.69;5073817;28;20299;-64
2023/08/23 10:32:10;;;;;;;;;;;;;;;32.19;28.24;100533.53;5073328;28;19913;-64
2023/08/23 10:34:36;;;;;;;;;;;;;;;32.21;28.64;100528.44;5073345;28;19912;-64
2023/08/23 10:37:15;;;;;;;;;;;;;;;32.21;28.07;100539.56;5073455;28;19960;-64
2023/08/23 10:39:50;;;;;;;;;;;;;;;32.13;28.32;100534.91;5073675;28;19935;-64
2023/08/23 10:42:17;;;;;;;;;;;;;;;32.16;27.83;100542.53;5073565;28;19994;-64
2023/08/23 10:45:02;;;;;;;;;;;;;;;32.03;28.39;100533.31;5073577;28;19912;-64
2023/08/23 10:47:33;;;;;;;;;;;;;;;32.28;27.63;100527.06;5059564;28;19959;-64
2023/08/23 10:49:59;;;;;;;;;;;;;;;32.50;27.51;100523.13;5073708;28;19913;-64
2023/08/23 10:52:25;;;;;;;;;;;;;;;32.71;27.14;100526.75;5073366;28;20253;-64
2023/08/23 10:54:50;;;;;;;;;;;;;;;32.83;26.54;100522.38;5072687;28;19912;-64
2023/08/23 10:57:16;;;;;;;;;;;;;;;32.99;26.50;100515.81;5073309;28;19978;-64
2023/08/23 10:59:42;;;;;;;;;;;;;;;33.27;28.01;100512.41;5073431;28;20284;-64
2023/08/23 11:02:07;;;;;;;;;;;;;;;33.44;25.88;100519.72;5081166;28;19961;-64
2023/08/23 11:04:33;;;;;;;;;;;;;;;33.64;27.01;100512.44;5093228;28;19924;-64
2023/08/23 11:06:58;;;;;;;;;;;;;;;34.07;26.02;100515.72;5093536;28;19957;-64
2023/08/23 11:09:23;;;;;;;;;;;;;;;34.31;24.71;100512.09;5093174;28;20490;-64
2023/08/23 11:11:49;;;;;;;;;;;;;;;34.39;24.00;100513.91;5092719;28;19935;-64
2023/08/23 11:14:14;;;;;;;;;;;;;;;34.65;24.46;100510.66;5090400;28;19920;-64
2023/08/23 11:16:39;;;;;;;;;;;;;;;34.97;23.77;100515.50;5072559;28;19924;-64
2023/08/23 11:19:07;;;;;;;;;;;;;;;35.04;23.89;100508.13;5072877;28;20494;-65
2023/08/23 11:21:33;;;;;;;;;;;;;;;35.14;23.04;100509.59;5072944;28;19916;-64
2023/08/23 11:24:02;;;;;;;;;;;;;;;35.28;23.42;100514.75;5072658;28;20002;-64
2023/08/23 11:26:28;;;;;;;;;;;;;;;35.34;25.53;100512.50;5062686;28;19991;-65
2023/08/23 11:28:53;;;;;;;;;;;;;;;35.44;25.87;100501.59;5072679;28;20003;-64
2023/08/23 11:31:21;;;;;;;;;;;;;;;35.06;23.70;100503.00;5072716;28;19919;-64
2023/08/23 11:33:46;;;;;;;;;;;;;;;35.04;24.93;100496.16;5072715;28;19912;-64
2023/08/23 11:36:11;;;;;;;;;;;;;;;35.22;24.17;100499.44;5054490;28;19923;-64
2023/08/23 11:38:38;;;;;;;;;;;;;;;35.41;24.44;100485.53;5072368;28;20065;-65
2023/08/23 11:41:03;;;;;;;;;;;;;;;35.75;24.72;100491.53;5054899;28;19924;-64
2023/08/23 11:43:29;;;;;;;;;;;;;;;35.99;23.55;100479.28;5072411;28;19912;-65
2023/08/23 11:45:54;;;;;;;;;;;;;;;36.00;21.04;100494.09;5072555;28;19990;-64
2023/08/23 11:48:25;;;;;;;;;;;;;;;36.01;21.32;100485.31;5073016;28;19916;-64
2023/08/23 11:50:51;;;;;;;;;;;;;;;36.11;20.76;100489.53;5076531;28;19920;-64
2023/08/23 11:53:17;;;;;;;;;;;;;;;36.22;21.57;100475.81;5076438;28;19912;-65
2023/08/23 11:55:42;;;;;;;;;;;;;;;36.43;20.83;100484.63;5076010;28;19919;-64
2023/08/23 11:58:09;;;;;;;;;;;;;;;36.74;21.52;100471.66;5076426;28;19962;-64
2023/08/23 12:00:34;;;;;;;;;;;;;;;36.76;21.34;100480.47;5076485;28;20388;-64
2023/08/23 12:03:00;;;;;;;;;;;;;;;37.02;20.25;100473.34;5091739;28;20006;-64
2023/08/23 12:05:26;;;;;;;;;;;;;;;37.35;21.50;100475.50;5096747;28;19912;-64
2023/08/23 12:07:51;;;;;;;;;;;;;;;37.34;20.15;100475.88;5077466;28;19916;-64
2023/08/23 12:10:16;;;;;;;;;;;;;;;37.55;20.11;100475.38;5076001;28;19912;-65
2023/08/23 12:12:42;;;;;;;;;;;;;;;37.61;19.72;100473.06;5076250;28;20007;-65
2023/08/23 12:15:07;;;;;;;;;;;;;;;37.57;19.78;100473.00;5076014;28;20410;-65
2023/08/23 12:17:33;;;;;;;;;;;;;;;37.65;19.88;100469.19;5076276;28;19966;-65
2023/08/23 12:19:59;;;;;;;;;;;;;;;37.37;19.71;100467.53;5076015;28;19999;-65
2023/08/23 12:22:24;;;;;;;;;;;;;;;37.63;19.82;100465.13;5075970;28;20396;-65
2023/08/23 12:24:49;;;;;;;;;;;;;;;37.80;19.74;100469.34;5075784;28;19912;-65
2023/08/23 12:27:15;;;;;;;;;;;;;;;38.25;19.64;100462.75;5075881;28;19920;-65
2023/08/23 12:29:41;;;;;;;;;;;;;;;38.58;19.25;100463.94;5075756;28;19916;-65